createdAt,value
2019-05-29T00:00:50.633Z,19.99
2019-05-29T00:15:50.927Z,19.96
2019-05-29T00:30:51.995Z,19.98
2019-05-29T00:45:50.941Z,19.93
2019-05-29T01:00:50.968Z,19.75
2019-05-29T01:15:52.304Z,19.61
2019-05-29T01:30:51.768Z,19.45
2019-05-29T01:45:51.195Z,19.46
2019-05-29T02:15:53.468Z,19.09
2019-05-29T02:30:52.698Z,18.95
2019-05-29T02:45:54.973Z,18.52
2019-05-29T03:00:55.992Z,18.07
2019-05-29T03:16:08.752Z,17.90
2019-05-29T03:30:50.829Z,17.91
2019-05-29T03:45:50.739Z,17.85
2019-05-29T04:00:50.702Z,17.87
2019-05-29T04:15:53.019Z,19.25
2019-05-29T04:30:51.091Z,22.01
2019-05-29T04:45:50.993Z,21.56
2019-05-29T05:00:59.101Z,23.40
2019-05-29T05:15:53.597Z,25.58
2019-05-29T05:30:51.283Z,26.71
2019-05-29T05:45:51.325Z,26.49
2019-05-29T06:00:52.274Z,28.31
2019-05-29T06:15:50.688Z,29.20
2019-05-29T06:30:51.411Z,28.95
2019-05-29T06:45:51.183Z,30.39
2019-05-29T07:00:50.549Z,31.23
2019-05-29T07:15:53.976Z,32.56
2019-05-29T07:31:00.396Z,31.54
2019-05-29T07:45:51.090Z,30.71
2019-05-29T08:01:09.841Z,30.98
2019-05-29T08:16:01.237Z,30.67
2019-05-29T08:30:55.771Z,30.55
2019-05-29T08:45:52.730Z,29.53
2019-05-29T09:00:54.790Z,30.03
2019-05-29T09:15:51.383Z,30.64
2019-05-29T09:30:51.439Z,30.54
2019-05-29T09:45:52.339Z,30.23
2019-05-29T10:01:09.519Z,28.33
2019-05-29T10:15:50.677Z,28.15
2019-05-29T10:45:56.659Z,27.44
2019-05-29T11:00:51.244Z,27.35
2019-05-29T11:15:50.968Z,26.99
2019-05-29T11:30:54.121Z,26.51
2019-05-29T11:45:51.158Z,26.39
2019-05-29T12:00:50.887Z,27.00
2019-05-29T12:15:59.694Z,27.51
2019-05-29T12:30:55.043Z,27.69
2019-05-29T12:45:53.381Z,27.61
2019-05-29T13:00:51.306Z,27.27
2019-05-29T13:15:50.509Z,27.30
2019-05-29T13:30:50.483Z,27.21
2019-05-29T13:45:52.987Z,27.23
2019-05-29T14:00:53.431Z,27.11
2019-05-29T14:15:50.869Z,26.72
2019-05-29T14:30:50.762Z,26.45
2019-05-29T14:45:50.760Z,26.83
2019-05-29T15:00:54.231Z,27.20
2019-05-29T15:15:51.102Z,27.53
2019-05-29T15:30:56.996Z,27.54
2019-05-29T15:45:51.109Z,26.95
2019-05-29T16:00:51.002Z,26.00
2019-05-29T16:15:51.431Z,25.17
2019-05-29T16:30:51.607Z,24.65
2019-05-29T16:45:51.369Z,24.30
2019-05-29T17:00:51.300Z,24.00
2019-05-29T17:15:50.712Z,23.74
2019-05-29T17:30:53.627Z,23.62
2019-05-29T17:45:50.574Z,23.21
2019-05-29T18:00:50.579Z,22.84
2019-05-29T18:30:56.932Z,22.24
2019-05-29T19:30:51.221Z,21.46
2019-05-29T19:45:51.211Z,21.44
2019-05-29T20:00:51.155Z,21.38
2019-05-29T20:15:50.511Z,21.29
2019-05-29T20:30:52.587Z,21.16
2019-05-29T20:45:56.489Z,20.96
2019-05-29T21:00:58.937Z,20.84
2019-05-29T21:15:50.441Z,20.80
2019-05-29T21:30:50.145Z,20.69
2019-05-29T21:45:54.147Z,20.69
2019-05-29T22:00:51.251Z,20.66
2019-05-29T22:15:52.559Z,20.76
2019-05-29T22:30:51.401Z,20.71
2019-05-29T22:45:51.579Z,20.72
2019-05-29T23:00:54.007Z,20.69
2019-05-29T23:15:50.651Z,20.63
2019-05-29T23:30:50.715Z,20.50
2019-05-29T23:45:50.706Z,20.51
